sensor_id;sensor_type;location;lat;lon;timestamp;pressure;altitude;pressure_sealevel;temperature;humidity
32330;BME280;18807;52.434;13.238;2023-07-29T00:02:09;74869.78;;;-142.05;100.00
32330;BME280;18807;52.434;13.238;2023-07-29T00:09:44;74877.94;;;-142.05;100.00
32330;BME280;18807;52.434;13.238;2023-07-29T00:17:20;74892.22;;;-142.05;100.00
32330;BME280;18807;52.434;13.238;2023-07-29T00:24:54;74898.34;;;-142.05;100.00
32330;BME280;18807;52.434;13.238;2023-07-29T00:32:31;74904.44;;;-142.05;100.00
32330;BME280;18807;52.434;13.238;2023-07-29T00:40:12;74916.69;;;-142.05;100.00
32330;BME280;18807;52.434;13.238;2023-07-29T00:47:50;74920.78;;;-142.05;100.00
32330;BME280;18807;52.434;13.238;2023-07-29T00:55:24;74922.81;;;-142.05;100.00
32330;BME280;18807;52.434;13.238;2023-07-29T01:03:01;74930.97;;;-142.05;100.00
32330;BME280;18807;52.434;13.238;2023-07-29T01:10:40;74920.78;;;-142.05;100.00
32330;BME280;18807;52.434;13.238;2023-07-29T01:18:23;74926.91;;;-142.05;100.00
32330;BME280;18807;52.434;13.238;2023-07-29T01:26:01;74928.94;;;-142.05;100.00
32330;BME280;18807;52.434;13.238;2023-07-29T01:33:40;74937.09;;;-142.05;100.00
32330;BME280;18807;52.434;13.238;2023-07-29T01:41:18;74949.34;;;-142.05;100.00
32330;BME280;18807;52.434;13.238;2023-07-29T01:48:54;74959.53;;;-142.05;100.00
32330;BME280;18807;52.434;13.238;2023-07-29T01:56:30;74975.88;;;-142.05;100.00
32330;BME280;18807;52.434;13.238;2023-07-29T02:04:04;74981.97;;;-142.05;100.00
32330;BME280;18807;52.434;13.238;2023-07-29T02:11:40;74990.16;;;-142.05;100.00
32330;BME280;18807;52.434;13.238;2023-07-29T02:19:15;75002.38;;;-142.05;100.00
32330;BME280;18807;52.434;13.238;2023-07-29T02:26:50;74998.31;;;-142.05;100.00
32330;BME280;18807;52.434;13.238;2023-07-29T02:34:25;75008.50;;;-142.05;100.00
32330;BME280;18807;52.434;13.238;2023-07-29T02:42:01;75014.63;;;-142.05;100.00
32330;BME280;18807;52.434;13.238;2023-07-29T02:49:35;75016.66;;;-142.05;100.00
32330;BME280;18807;52.434;13.238;2023-07-29T02:57:13;75026.88;;;-142.05;100.00
32330;BME280;18807;52.434;13.238;2023-07-29T03:04:48;75037.06;;;-142.05;100.00
32330;BME280;18807;52.434;13.238;2023-07-29T03:12:25;75039.09;;;-142.05;100.00
32330;BME280;18807;52.434;13.238;2023-07-29T03:19:59;75039.09;;;-142.05;100.00
32330;BME280;18807;52.434;13.238;2023-07-29T03:27:35;75045.22;;;-142.05;100.00
32330;BME280;18807;52.434;13.238;2023-07-29T03:35:09;75053.41;;;-142.05;100.00
32330;BME280;18807;52.434;13.238;2023-07-29T03:42:45;75049.31;;;-142.05;100.00
32330;BME280;18807;52.434;13.238;2023-07-29T03:50:22;75049.31;;;-142.05;100.00
32330;BME280;18807;52.434;13.238;2023-07-29T03:57:58;75045.22;;;-142.05;100.00
32330;BME280;18807;52.434;13.238;2023-07-29T04:05:34;75037.06;;;-142.05;100.00
32330;BME280;18807;52.434;13.238;2023-07-29T04:13:13;75030.94;;;-142.05;100.00
32330;BME280;18807;52.434;13.238;2023-07-29T04:20:47;75030.94;;;-142.05;100.00
32330;BME280;18807;52.434;13.238;2023-07-29T04:28:23;75022.78;;;-142.05;100.00
32330;BME280;18807;52.434;13.238;2023-07-29T04:35:57;75012.59;;;-142.05;100.00
32330;BME280;18807;52.434;13.238;2023-07-29T04:43:33;75010.53;;;-142.05;100.00
32330;BME280;18807;52.434;13.238;2023-07-29T04:51:08;75008.50;;;-142.05;100.00
32330;BME280;18807;52.434;13.238;2023-07-29T04:58:44;75002.38;;;-142.05;100.00
32330;BME280;18807;52.434;13.238;2023-07-29T05:06:19;74988.09;;;-142.05;100.00
32330;BME280;18807;52.434;13.238;2023-07-29T05:13:56;74935.06;;;-142.05;100.00
32330;BME280;18807;52.434;13.238;2023-07-29T05:21:31;74941.19;;;-142.05;100.00
32330;BME280;18807;52.434;13.238;2023-07-29T05:29:07;74937.09;;;-142.05;100.00
32330;BME280;18807;52.434;13.238;2023-07-29T05:36:41;74914.66;;;-142.05;100.00
32330;BME280;18807;52.434;13.238;2023-07-29T05:44:17;74877.94;;;-142.05;100.00
32330;BME280;18807;52.434;13.238;2023-07-29T05:51:51;74849.38;;;-142.05;100.00
32330;BME280;18807;52.434;13.238;2023-07-29T05:59:27;74820.81;;;-142.05;100.00
32330;BME280;18807;52.434;13.238;2023-07-29T06:07:02;74769.81;;;-142.05;100.00
32330;BME280;18807;52.434;13.238;2023-07-29T06:14:38;74755.53;;;-142.05;100.00
32330;BME280;18807;52.434;13.238;2023-07-29T06:22:12;74731.03;;;-142.05;100.00
32330;BME280;18807;52.434;13.238;2023-07-29T06:29:47;74696.34;;;-142.05;100.00
32330;BME280;18807;52.434;13.238;2023-07-29T06:37:22;74690.22;;;-142.05;100.00
32330;BME280;18807;52.434;13.238;2023-07-29T06:44:58;74645.34;;;-142.05;100.00
32330;BME280;18807;52.434;13.238;2023-07-29T06:52:32;74641.28;;;-142.05;100.00
32330;BME280;18807;52.434;13.238;2023-07-29T07:00:09;74600.47;;;-142.05;100.00
32330;BME280;18807;52.434;13.238;2023-07-29T07:07:44;74588.22;;;-142.05;100.00
32330;BME280;18807;52.434;13.238;2023-07-29T07:15:20;74563.75;;;-142.05;100.00
32330;BME280;18807;52.434;13.238;2023-07-29T07:22:54;74549.47;;;-142.05;100.00
32330;BME280;18807;52.434;13.238;2023-07-29T07:30:30;74531.09;;;-142.05;100.00
32330;BME280;18807;52.434;13.238;2023-07-29T07:38:05;74500.50;;;-142.05;100.00
32330;BME280;18807;52.434;13.238;2023-07-29T07:45:41;74476.03;;;-142.05;100.00
32330;BME280;18807;52.434;13.238;2023-07-29T07:53:16;74459.72;;;-142.05;100.00
32330;BME280;18807;52.434;13.238;2023-07-29T08:00:52;74412.78;;;-142.05;100.00
32330;BME280;18807;52.434;13.238;2023-07-29T08:08:34;74378.13;;;-142.05;100.00
32330;BME280;18807;52.434;13.238;2023-07-29T08:16:15;74361.78;;;-142.05;100.00
32330;BME280;18807;52.434;13.238;2023-07-29T08:23:49;74345.47;;;-142.05;100.00
32330;BME280;18807;52.434;13.238;2023-07-29T08:31:25;74323.03;;;-142.05;100.00
32330;BME280;18807;52.434;13.238;2023-07-29T08:38:59;74300.59;;;-142.05;100.00
32330;BME280;18807;52.434;13.238;2023-07-29T08:46:39;74265.91;;;-142.05;100.00
32330;BME280;18807;52.434;13.238;2023-07-29T08:54:14;74225.13;;;-142.05;99.12
32330;BME280;18807;52.434;13.238;2023-07-29T09:01:50;74172.09;;;-142.05;100.00
32330;BME280;18807;52.434;13.238;2023-07-29T09:09:28;74147.59;;;-142.05;87.91
32330;BME280;18807;52.434;13.238;2023-07-29T09:17:06;74108.84;;;-142.05;88.12
32330;BME280;18807;52.434;13.238;2023-07-29T09:24:41;74094.56;;;-142.05;83.37
32330;BME280;18807;52.434;13.238;2023-07-29T09:32:21;74082.34;;;-142.05;81.74
32330;BME280;18807;52.434;13.238;2023-07-29T09:39:56;74059.91;;;-142.05;82.62
32330;BME280;18807;52.434;13.238;2023-07-29T09:47:31;74015.03;;;-142.05;75.80
32330;BME280;18807;52.434;13.238;2023-07-29T09:55:06;73978.31;;;-142.05;82.58
32330;BME280;18807;52.434;13.238;2023-07-29T10:02:43;73996.66;;;-142.05;79.76
32330;BME280;18807;52.434;13.238;2023-07-29T10:10:18;73996.66;;;-142.05;82.44
32330;BME280;18807;52.434;13.238;2023-07-29T10:17:55;73992.59;;;-142.05;81.30
32330;BME280;18807;52.434;13.238;2023-07-29T10:25:37;73972.19;;;-142.05;76.31
32330;BME280;18807;52.434;13.238;2023-07-29T10:33:13;73968.13;;;-142.05;80.09
32330;BME280;18807;52.434;13.238;2023-07-29T10:40:51;73968.13;;;-142.05;74.45
32330;BME280;18807;52.434;13.238;2023-07-29T10:48:54;73955.88;;;-142.05;70.43
32330;BME280;18807;52.434;13.238;2023-07-29T10:56:31;74008.91;;;-142.05;73.37
32330;BME280;18807;52.434;13.238;2023-07-29T11:04:27;74161.88;;;-142.05;100.00
32330;BME280;18807;52.434;13.238;2023-07-29T11:12:05;74196.56;;;-142.05;100.00
32330;BME280;18807;52.434;13.238;2023-07-29T11:19:42;74231.25;;;-142.05;100.00
32330;BME280;18807;52.434;13.238;2023-07-29T11:27:17;74214.91;;;-142.05;100.00
32330;BME280;18807;52.434;13.238;2023-07-29T11:34:52;74239.41;;;-142.05;100.00
32330;BME280;18807;52.434;13.238;2023-07-29T11:42:27;74272.03;;;-142.05;100.00
32330;BME280;18807;52.434;13.238;2023-07-29T11:50:03;74239.41;;;-142.05;100.00
32330;BME280;18807;52.434;13.238;2023-07-29T11:57:39;74261.84;;;-142.05;100.00
32330;BME280;18807;52.434;13.238;2023-07-29T12:05:15;74288.34;;;-142.05;100.00
32330;BME280;18807;52.434;13.238;2023-07-29T12:12:53;74290.41;;;-142.05;100.00
32330;BME280;18807;52.434;13.238;2023-07-29T12:20:30;74304.69;;;-142.05;100.00
32330;BME280;18807;52.434;13.238;2023-07-29T12:28:05;74302.63;;;-142.05;100.00
32330;BME280;18807;52.434;13.238;2023-07-29T12:35:41;74288.34;;;-142.05;100.00
32330;BME280;18807;52.434;13.238;2023-07-29T12:43:16;74263.88;;;-142.05;100.00
32330;BME280;18807;52.434;13.238;2023-07-29T12:50:52;74239.41;;;-142.05;100.00
32330;BME280;18807;52.434;13.238;2023-07-29T12:58:28;74241.44;;;-142.05;100.00
32330;BME280;18807;52.434;13.238;2023-07-29T13:06:04;74225.13;;;-142.05;100.00
32330;BME280;18807;52.434;13.238;2023-07-29T13:13:38;74200.66;;;-142.05;100.00
32330;BME280;18807;52.434;13.238;2023-07-29T13:21:14;74180.25;;;-142.05;100.00
32330;BME280;18807;52.434;13.238;2023-07-29T13:28:48;74178.22;;;-142.05;100.00
32330;BME280;18807;52.434;13.238;2023-07-29T13:36:24;74141.50;;;-142.05;100.00
32330;BME280;18807;52.434;13.238;2023-07-29T13:43:58;74133.34;;;-142.05;100.00
32330;BME280;18807;52.434;13.238;2023-07-29T13:51:34;74127.22;;;-142.05;100.00
32330;BME280;18807;52.434;13.238;2023-07-29T13:59:08;74117.00;;;-142.05;100.00
32330;BME280;18807;52.434;13.238;2023-07-29T14:06:44;74096.63;;;-142.05;100.00
32330;BME280;18807;52.434;13.238;2023-07-29T14:14:23;74027.25;;;-142.05;100.00
32330;BME280;18807;52.434;13.238;2023-07-29T14:22:00;74027.25;;;-142.05;100.00
32330;BME280;18807;52.434;13.238;2023-07-29T14:29:34;73988.50;;;-142.05;100.00
32330;BME280;18807;52.434;13.238;2023-07-29T14:37:10;74006.88;;;-142.05;94.63
32330;BME280;18807;52.434;13.238;2023-07-29T14:44:44;74023.19;;;-142.05;100.00
32330;BME280;18807;52.434;13.238;2023-07-29T14:52:20;74039.50;;;-142.05;100.00
32330;BME280;18807;52.434;13.238;2023-07-29T14:59:55;74045.63;;;-142.05;100.00
32330;BME280;18807;52.434;13.238;2023-07-29T15:07:31;74051.75;;;-142.05;100.00
32330;BME280;18807;52.434;13.238;2023-07-29T15:15:06;74076.22;;;-142.05;100.00
32330;BME280;18807;52.434;13.238;2023-07-29T15:22:42;74090.50;;;-142.05;100.00
32330;BME280;18807;52.434;13.238;2023-07-29T15:30:17;74133.34;;;-142.05;100.00
32330;BME280;18807;52.434;13.238;2023-07-29T15:37:53;74323.03;;;-142.05;100.00
32330;BME280;18807;52.434;13.238;2023-07-29T15:45:27;74400.56;;;-142.05;100.00
32330;BME280;18807;52.434;13.238;2023-07-29T15:53:02;74386.28;;;-142.05;100.00
32330;BME280;18807;52.434;13.238;2023-07-29T16:00:37;74331.19;;;-142.05;100.00
32330;BME280;18807;52.434;13.238;2023-07-29T16:08:13;74321.00;;;-142.05;100.00
32330;BME280;18807;52.434;13.238;2023-07-29T16:15:47;74353.63;;;-142.05;100.00
32330;BME280;18807;52.434;13.238;2023-07-29T16:23:23;74333.22;;;-142.05;100.00
32330;BME280;18807;52.434;13.238;2023-07-29T16:30:57;74300.59;;;-142.05;100.00
32330;BME280;18807;52.434;13.238;2023-07-29T16:38:33;74339.34;;;-142.05;100.00
32330;BME280;18807;52.434;13.238;2023-07-29T16:46:10;74327.13;;;-142.05;100.00
32330;BME280;18807;52.434;13.238;2023-07-29T16:53:46;74318.97;;;-142.05;100.00
32330;BME280;18807;52.434;13.238;2023-07-29T17:01:20;74306.72;;;-142.05;100.00
32330;BME280;18807;52.434;13.238;2023-07-29T17:08:57;74312.84;;;-142.05;100.00
32330;BME280;18807;52.434;13.238;2023-07-29T17:16:31;74304.69;;;-142.05;100.00
32330;BME280;18807;52.434;13.238;2023-07-29T17:24:08;74304.69;;;-142.05;100.00
32330;BME280;18807;52.434;13.238;2023-07-29T17:31:43;74288.34;;;-142.05;100.00
32330;BME280;18807;52.434;13.238;2023-07-29T17:39:19;74290.41;;;-142.05;100.00
32330;BME280;18807;52.434;13.238;2023-07-29T17:46:54;74292.44;;;-142.05;100.00
32330;BME280;18807;52.434;13.238;2023-07-29T17:54:31;74300.59;;;-142.05;100.00
32330;BME280;18807;52.434;13.238;2023-07-29T18:02:06;74302.63;;;-142.05;100.00
32330;BME280;18807;52.434;13.238;2023-07-29T18:09:41;74306.72;;;-142.05;100.00
32330;BME280;18807;52.434;13.238;2023-07-29T18:17:16;74331.19;;;-142.05;100.00
32330;BME280;18807;52.434;13.238;2023-07-29T18:24:51;74345.47;;;-142.05;100.00
32330;BME280;18807;52.434;13.238;2023-07-29T18:32:26;74382.19;;;-142.05;100.00
32330;BME280;18807;52.434;13.238;2023-07-29T18:40:03;74408.72;;;-142.05;100.00
32330;BME280;18807;52.434;13.238;2023-07-29T18:47:37;74418.91;;;-142.05;100.00
32330;BME280;18807;52.434;13.238;2023-07-29T18:55:13;74433.19;;;-142.05;100.00
32330;BME280;18807;52.434;13.238;2023-07-29T19:02:47;74453.59;;;-142.05;100.00
32330;BME280;18807;52.434;13.238;2023-07-29T19:10:24;74474.00;;;-142.05;100.00
32330;BME280;18807;52.434;13.238;2023-07-29T19:17:58;74492.34;;;-142.05;100.00
32330;BME280;18807;52.434;13.238;2023-07-29T19:25:34;74518.88;;;-142.05;100.00
32330;BME280;18807;52.434;13.238;2023-07-29T19:33:08;74537.22;;;-142.05;100.00
32330;BME280;18807;52.434;13.238;2023-07-29T19:40:44;74551.50;;;-142.05;100.00
32330;BME280;18807;52.434;13.238;2023-07-29T19:48:18;74565.78;;;-142.05;100.00
32330;BME280;18807;52.434;13.238;2023-07-29T19:55:54;74582.13;;;-142.05;100.00
32330;BME280;18807;52.434;13.238;2023-07-29T20:03:29;74604.56;;;-142.05;100.00
32330;BME280;18807;52.434;13.238;2023-07-29T20:11:05;74616.78;;;-142.05;100.00
32330;BME280;18807;52.434;13.238;2023-07-29T20:18:40;74641.28;;;-142.05;100.00
32330;BME280;18807;52.434;13.238;2023-07-29T20:26:17;74641.28;;;-142.05;100.00
32330;BME280;18807;52.434;13.238;2023-07-29T20:33:51;74655.56;;;-142.05;100.00
32330;BME280;18807;52.434;13.238;2023-07-29T20:41:27;74669.84;;;-142.05;100.00
32330;BME280;18807;52.434;13.238;2023-07-29T20:49:02;74675.94;;;-142.05;100.00
32330;BME280;18807;52.434;13.238;2023-07-29T20:56:38;74686.16;;;-142.05;100.00
32330;BME280;18807;52.434;13.238;2023-07-29T21:04:12;74688.19;;;-142.05;100.00
32330;BME280;18807;52.434;13.238;2023-07-29T21:11:48;74702.47;;;-142.05;100.00
32330;BME280;18807;52.434;13.238;2023-07-29T21:19:23;74714.72;;;-142.05;100.00
32330;BME280;18807;52.434;13.238;2023-07-29T21:27:00;74735.13;;;-142.05;100.00
32330;BME280;18807;52.434;13.238;2023-07-29T21:34:35;74747.34;;;-142.05;100.00
32330;BME280;18807;52.434;13.238;2023-07-29T21:42:11;74755.53;;;-142.05;100.00
32330;BME280;18807;52.434;13.238;2023-07-29T21:49:45;74771.84;;;-142.05;100.00
32330;BME280;18807;52.434;13.238;2023-07-29T21:57:21;74775.91;;;-142.05;100.00
32330;BME280;18807;52.434;13.238;2023-07-29T22:04:55;74784.09;;;-142.05;100.00
32330;BME280;18807;52.434;13.238;2023-07-29T22:12:31;74800.41;;;-142.05;100.00
32330;BME280;18807;52.434;13.238;2023-07-29T22:20:07;74802.44;;;-142.05;100.00
32330;BME280;18807;52.434;13.238;2023-07-29T22:27:43;74810.59;;;-142.05;100.00
32330;BME280;18807;52.434;13.238;2023-07-29T22:35:18;74810.59;;;-142.05;100.00
32330;BME280;18807;52.434;13.238;2023-07-29T22:42:53;74835.09;;;-142.05;100.00
32330;BME280;18807;52.434;13.238;2023-07-29T22:50:27;74853.44;;;-142.05;100.00
32330;BME280;18807;52.434;13.238;2023-07-29T22:58:03;74869.78;;;-142.05;100.00
32330;BME280;18807;52.434;13.238;2023-07-29T23:05:38;74894.25;;;-142.05;100.00
32330;BME280;18807;52.434;13.238;2023-07-29T23:13:13;74898.34;;;-142.05;100.00
32330;BME280;18807;52.434;13.238;2023-07-29T23:20:49;74908.53;;;-142.05;100.00
32330;BME280;18807;52.434;13.238;2023-07-29T23:28:26;74918.72;;;-142.05;100.00
32330;BME280;18807;52.434;13.238;2023-07-29T23:36:01;74924.84;;;-142.05;100.00
32330;BME280;18807;52.434;13.238;2023-07-29T23:43:36;74947.28;;;-142.05;100.00
32330;BME280;18807;52.434;13.238;2023-07-29T23:51:11;74957.50;;;-142.05;100.00
32330;BME280;18807;52.434;13.238;2023-07-29T23:58:46;74979.94;;;-142.05;100.00
